createdAt,value
2018-10-18T00:00:10.707Z,75.58
2018-10-18T00:01:14.665Z,75.57
2018-10-18T00:02:18.801Z,75.86
2018-10-18T00:03:22.771Z,75.97
2018-10-18T00:04:26.830Z,75.61
2018-10-18T00:05:30.972Z,75.52
2018-10-18T00:06:34.974Z,76.31
2018-10-18T00:07:39.084Z,76.53
2018-10-18T00:08:43.100Z,75.65
2018-10-18T00:09:47.121Z,75.71
2018-10-18T00:10:51.081Z,75.61
2018-10-18T00:11:55.158Z,76.11
2018-10-18T00:12:59.300Z,76.36
2018-10-18T00:14:03.412Z,76.47
2018-10-18T00:15:08.001Z,75.72
2018-10-18T00:16:12.223Z,75.79
2018-10-18T00:17:21.485Z,75.59
2018-10-18T00:18:25.635Z,76.00
2018-10-18T00:19:29.775Z,76.34
2018-10-18T00:20:33.861Z,76.52
2018-10-18T00:23:06.407Z,76.52
2018-10-18T00:24:10.412Z,76.36
2018-10-18T00:25:14.869Z,76.34
2018-10-18T00:26:18.876Z,76.60
2018-10-18T00:27:22.991Z,76.08
2018-10-18T00:28:26.973Z,76.23
2018-10-18T00:29:31.043Z,75.91
2018-10-18T00:30:35.048Z,76.73
2018-10-18T00:31:39.145Z,76.87
2018-10-18T00:32:44.139Z,76.80
2018-10-18T00:33:48.272Z,76.52
2018-10-18T00:34:52.355Z,76.88
2018-10-18T00:35:56.410Z,76.23
2018-10-18T00:37:00.403Z,76.21
2018-10-18T00:38:04.460Z,76.60
2018-10-18T00:39:11.780Z,76.46
2018-10-18T00:40:15.935Z,76.57
2018-10-18T00:41:19.983Z,76.33
2018-10-18T00:42:24.044Z,76.33
2018-10-18T00:43:28.336Z,76.41
2018-10-18T00:44:32.357Z,76.37
2018-10-18T00:45:36.376Z,76.25
2018-10-18T00:46:40.402Z,76.92
2018-10-18T00:47:44.468Z,76.63
2018-10-18T00:48:48.625Z,76.94
2018-10-18T00:49:52.691Z,76.39
2018-10-18T00:50:56.699Z,76.40
2018-10-18T00:52:00.762Z,76.85
2018-10-18T00:53:05.063Z,76.44
2018-10-18T00:54:09.364Z,76.95
2018-10-18T00:55:13.313Z,76.35
2018-10-18T00:56:17.415Z,76.45
2018-10-18T00:57:21.475Z,76.49
2018-10-18T00:58:25.773Z,77.09
2018-10-18T00:59:29.773Z,77.25
2018-10-18T01:00:33.897Z,77.28
2018-10-18T01:01:37.878Z,77.02
2018-10-18T01:02:41.872Z,77.12
2018-10-18T01:03:46.046Z,76.95
2018-10-18T01:04:50.090Z,76.50
2018-10-18T01:05:54.212Z,77.10
2018-10-18T01:06:58.550Z,77.25
2018-10-18T01:08:02.682Z,77.12
2018-10-18T01:09:07.982Z,76.79
2018-10-18T01:10:11.971Z,77.31
2018-10-18T01:11:15.948Z,77.29
2018-10-18T01:12:20.099Z,77.15
2018-10-18T01:13:24.137Z,77.19
2018-10-18T01:14:28.410Z,77.36
2018-10-18T01:15:32.510Z,76.58
2018-10-18T01:16:36.557Z,76.83
2018-10-18T01:17:40.629Z,76.99
2018-10-18T01:18:44.866Z,76.80
2018-10-18T01:19:48.928Z,77.07
2018-10-18T01:20:52.958Z,77.28
2018-10-18T01:21:56.959Z,77.38
2018-10-18T01:23:00.929Z,76.77
2018-10-18T01:24:05.501Z,77.47
2018-10-18T01:25:09.557Z,77.55
2018-10-18T01:26:13.616Z,76.90
2018-10-18T01:27:17.668Z,77.08
2018-10-18T01:28:21.777Z,76.86
2018-10-18T01:29:26.244Z,76.91
2018-10-18T01:30:30.367Z,77.42
2018-10-18T01:31:34.425Z,76.82
2018-10-18T01:32:38.529Z,77.52
2018-10-18T01:33:42.750Z,77.65
2018-10-18T01:34:46.798Z,77.70
2018-10-18T01:35:50.876Z,77.11
2018-10-18T01:36:54.961Z,76.94
2018-10-18T01:37:59.046Z,77.31
2018-10-18T01:39:03.037Z,77.20
2018-10-18T01:40:07.225Z,77.57
2018-10-18T01:41:11.255Z,76.94
2018-10-18T01:42:15.387Z,77.46
2018-10-18T01:43:19.408Z,77.55
2018-10-18T01:44:23.797Z,76.91
2018-10-18T01:45:28.043Z,77.00
2018-10-18T01:46:32.188Z,76.86
2018-10-18T01:47:36.181Z,77.49
2018-10-18T01:48:40.262Z,77.19
2018-10-18T01:49:44.277Z,77.16
2018-10-18T01:50:48.253Z,76.95
2018-10-18T01:51:52.252Z,77.48
2018-10-18T01:52:56.261Z,77.44
2018-10-18T01:54:00.435Z,77.29
2018-10-18T01:55:05.562Z,76.84
2018-10-18T01:56:09.725Z,76.95
2018-10-18T01:57:13.711Z,77.16
2018-10-18T01:58:17.719Z,77.54
2018-10-18T01:59:21.797Z,76.99
2018-10-18T02:00:25.788Z,76.94
2018-10-18T02:01:30.486Z,76.85
2018-10-18T02:02:34.513Z,77.31
2018-10-18T02:03:38.528Z,77.38
2018-10-18T02:04:42.666Z,77.44
2018-10-18T02:05:46.652Z,77.30
2018-10-18T02:06:50.709Z,77.15
2018-10-18T02:07:54.859Z,77.44
2018-10-18T02:08:58.823Z,77.44
2018-10-18T02:10:02.960Z,77.19
2018-10-18T02:11:07.308Z,76.85
2018-10-18T02:12:11.490Z,77.22
2018-10-18T02:13:15.430Z,77.69
2018-10-18T02:14:19.520Z,77.01
2018-10-18T02:15:23.512Z,77.80
2018-10-18T02:16:27.535Z,77.44
2018-10-18T02:17:31.708Z,77.77
2018-10-18T02:18:35.700Z,77.17
2018-10-18T02:19:40.016Z,77.96
2018-10-18T02:20:44.011Z,77.83
2018-10-18T02:21:48.029Z,77.37
2018-10-18T02:22:52.710Z,78.02
2018-10-18T02:23:56.899Z,77.73
2018-10-18T02:25:01.011Z,77.29
2018-10-18T02:26:04.992Z,77.65
2018-10-18T02:27:09.205Z,77.87
2018-10-18T02:28:13.412Z,77.50
2018-10-18T02:29:17.448Z,77.72
2018-10-18T02:30:21.583Z,77.89
2018-10-18T02:31:25.621Z,77.40
2018-10-18T02:32:29.915Z,77.81
2018-10-18T02:33:33.941Z,77.45
2018-10-18T02:34:37.972Z,77.67
2018-10-18T02:35:42.103Z,77.41
2018-10-18T02:36:46.160Z,77.44
2018-10-18T02:37:50.216Z,77.62
2018-10-18T02:38:54.265Z,78.10
2018-10-18T02:39:58.307Z,77.93
2018-10-18T02:41:02.313Z,77.45
2018-10-18T02:42:06.588Z,77.71
2018-10-18T02:43:10.627Z,77.19
2018-10-18T02:44:14.672Z,77.15
2018-10-18T02:45:18.741Z,77.12
2018-10-18T02:46:22.802Z,77.65
2018-10-18T02:47:26.905Z,77.18
2018-10-18T02:48:31.012Z,77.79
2018-10-18T02:49:35.067Z,77.05
2018-10-18T02:50:39.110Z,77.60
2018-10-18T02:51:43.209Z,77.59
2018-10-18T02:52:47.356Z,77.68
2018-10-18T02:53:51.407Z,77.29
2018-10-18T02:54:55.399Z,77.70
2018-10-18T02:55:59.513Z,77.73
2018-10-18T02:57:03.497Z,77.45
2018-10-18T02:58:07.529Z,77.68
2018-10-18T02:59:11.525Z,77.11
2018-10-18T03:00:15.606Z,77.12
2018-10-18T03:01:19.553Z,77.70
2018-10-18T03:02:23.593Z,77.36
2018-10-18T03:03:27.625Z,77.74
2018-10-18T03:04:31.652Z,77.20
2018-10-18T03:05:35.664Z,77.44
2018-10-18T03:06:39.697Z,77.78
2018-10-18T03:07:43.796Z,77.80
2018-10-18T03:08:47.821Z,77.20
2018-10-18T03:09:51.867Z,77.23
2018-10-18T03:10:55.920Z,77.52
2018-10-18T03:12:00.093Z,77.90
2018-10-18T03:13:04.055Z,77.63
2018-10-18T03:14:08.176Z,77.97
2018-10-18T03:15:12.220Z,77.82
2018-10-18T03:16:16.288Z,77.22
2018-10-18T03:17:20.427Z,77.83
2018-10-18T03:18:24.433Z,77.87
2018-10-18T03:19:28.511Z,77.17
2018-10-18T03:20:32.871Z,77.36
2018-10-18T03:21:36.924Z,77.44
2018-10-18T03:22:42.591Z,77.66
2018-10-18T03:23:46.618Z,77.63
2018-10-18T03:24:50.680Z,77.87
2018-10-18T03:25:54.709Z,77.70
2018-10-18T03:26:58.797Z,77.70
2018-10-18T03:28:03.104Z,77.51
2018-10-18T03:29:07.091Z,77.63
2018-10-18T03:30:11.104Z,77.42
2018-10-18T03:31:15.182Z,78.03
2018-10-18T03:32:19.662Z,78.02
2018-10-18T03:33:23.684Z,77.47
2018-10-18T03:34:27.753Z,77.48
2018-10-18T03:35:31.831Z,77.47
2018-10-18T03:36:35.929Z,77.97
2018-10-18T03:37:39.929Z,78.05
2018-10-18T03:38:43.960Z,78.00
2018-10-18T03:39:47.997Z,77.39
2018-10-18T03:40:52.028Z,77.69
2018-10-18T03:41:56.074Z,77.55
2018-10-18T03:43:00.033Z,77.93
2018-10-18T03:44:04.629Z,78.21
2018-10-18T03:45:08.659Z,78.07
2018-10-18T03:46:12.752Z,77.69
2018-10-18T03:47:16.822Z,77.61
2018-10-18T03:48:20.946Z,77.74
2018-10-18T03:49:24.943Z,78.35
2018-10-18T03:50:28.927Z,78.08
2018-10-18T03:51:33.197Z,77.59
2018-10-18T03:52:37.189Z,77.69
2018-10-18T03:53:41.313Z,78.25
2018-10-18T03:54:45.449Z,77.76
2018-10-18T03:55:49.652Z,77.36
2018-10-18T03:56:53.692Z,77.72
2018-10-18T03:57:57.856Z,77.40
2018-10-18T03:59:01.876Z,77.67
2018-10-18T04:00:07.034Z,77.84
2018-10-18T04:01:11.037Z,77.12
2018-10-18T04:02:15.047Z,77.18
2018-10-18T04:03:19.262Z,77.12
2018-10-18T04:04:23.325Z,77.32
2018-10-18T04:05:27.484Z,77.65
2018-10-18T04:06:31.465Z,76.96
2018-10-18T04:07:35.586Z,76.97
2018-10-18T04:08:39.639Z,76.91
2018-10-18T04:09:43.686Z,76.86
2018-10-18T04:10:47.831Z,76.91
2018-10-18T04:11:51.866Z,76.87
2018-10-18T04:12:55.967Z,76.92
2018-10-18T04:13:59.896Z,77.23
2018-10-18T04:15:03.937Z,77.21
2018-10-18T04:16:08.030Z,76.69
2018-10-18T04:17:12.024Z,77.14
2018-10-18T04:18:16.255Z,76.55
2018-10-18T04:19:20.467Z,77.22
2018-10-18T04:20:24.494Z,76.70
2018-10-18T04:21:28.744Z,77.04
2018-10-18T04:22:32.731Z,76.63
2018-10-18T04:23:37.040Z,76.80
2018-10-18T04:24:41.068Z,76.53
2018-10-18T04:25:45.180Z,76.69
2018-10-18T04:26:49.628Z,76.74
2018-10-18T04:27:53.706Z,76.99
2018-10-18T04:28:57.699Z,77.04
2018-10-18T04:30:01.747Z,76.85
2018-10-18T04:31:05.803Z,77.00
2018-10-18T04:32:09.843Z,77.13
2018-10-18T04:33:13.842Z,76.93
2018-10-18T04:34:17.828Z,76.43
2018-10-18T04:35:21.939Z,76.73
2018-10-18T04:36:26.008Z,76.86
2018-10-18T04:37:30.237Z,76.88
2018-10-18T04:38:34.293Z,76.82
2018-10-18T04:39:38.474Z,76.76
2018-10-18T04:40:42.507Z,76.21
2018-10-18T04:41:46.556Z,76.59
2018-10-18T04:42:50.609Z,76.48
2018-10-18T04:43:54.625Z,76.76
2018-10-18T04:44:58.661Z,76.22
2018-10-18T04:46:02.606Z,76.63
2018-10-18T04:47:07.004Z,75.96
2018-10-18T04:48:11.232Z,76.50
2018-10-18T04:49:15.249Z,75.90
2018-10-18T04:50:19.316Z,76.46
2018-10-18T04:51:24.963Z,75.80
2018-10-18T04:52:29.008Z,75.83
2018-10-18T04:53:33.147Z,76.44
2018-10-18T04:54:37.190Z,75.80
2018-10-18T04:55:41.252Z,75.73
2018-10-18T04:56:45.429Z,75.85
2018-10-18T04:57:49.545Z,76.46
2018-10-18T04:58:53.566Z,75.75
2018-10-18T04:59:57.612Z,75.81
2018-10-18T05:01:01.681Z,75.99
2018-10-18T05:02:05.713Z,76.08
2018-10-18T05:03:09.734Z,75.82
2018-10-18T05:04:13.809Z,76.01
2018-10-18T05:05:29.241Z,75.89
2018-10-18T05:06:33.260Z,75.80
2018-10-18T05:07:37.341Z,75.84
2018-10-18T05:08:41.547Z,75.72
2018-10-18T05:09:45.568Z,76.57
2018-10-18T05:10:49.716Z,76.44
2018-10-18T05:11:53.850Z,76.27
2018-10-18T05:12:57.976Z,76.58
2018-10-18T05:14:02.008Z,76.63
2018-10-18T05:15:06.832Z,76.82
2018-10-18T05:16:10.909Z,76.08
2018-10-18T05:17:15.027Z,76.19
2018-10-18T05:18:19.385Z,76.83
2018-10-18T05:19:23.414Z,76.40
2018-10-18T05:20:27.496Z,76.29
2018-10-18T05:21:31.607Z,76.32
2018-10-18T05:22:35.628Z,76.78
2018-10-18T05:23:39.656Z,76.30
2018-10-18T05:24:43.696Z,76.54
2018-10-18T05:25:48.839Z,76.37
2018-10-18T05:26:52.896Z,76.89
2018-10-18T05:27:56.943Z,76.37
2018-10-18T05:29:01.023Z,76.41
2018-10-18T05:30:05.622Z,76.32
2018-10-18T05:31:09.710Z,76.25
2018-10-18T05:32:13.747Z,76.91
2018-10-18T05:33:17.807Z,76.21
2018-10-18T05:34:21.807Z,76.88
2018-10-18T05:35:26.035Z,76.88
2018-10-18T05:36:30.069Z,76.47
2018-10-18T05:37:34.268Z,76.36
2018-10-18T05:38:38.263Z,77.13
2018-10-18T05:39:42.343Z,76.41
2018-10-18T05:40:46.636Z,76.67
2018-10-18T05:41:50.770Z,76.91
2018-10-18T05:42:54.855Z,76.42
2018-10-18T05:43:58.906Z,76.80
2018-10-18T05:45:02.925Z,76.37
2018-10-18T05:46:06.928Z,76.58
2018-10-18T05:47:10.984Z,76.40
2018-10-18T05:48:15.035Z,76.94
2018-10-18T05:49:19.217Z,76.68
2018-10-18T05:50:23.096Z,76.84
2018-10-18T05:51:27.191Z,76.33
2018-10-18T05:52:31.289Z,76.21
2018-10-18T05:53:35.423Z,76.39
2018-10-18T05:54:39.363Z,76.73
2018-10-18T05:55:43.438Z,76.04
2018-10-18T05:56:47.560Z,76.17
2018-10-18T05:57:51.539Z,76.77
2018-10-18T05:58:55.623Z,76.80
2018-10-18T05:59:59.657Z,76.75
2018-10-18T06:01:03.668Z,76.54
2018-10-18T06:02:08.058Z,76.10
2018-10-18T06:03:12.604Z,76.52
2018-10-18T06:04:16.907Z,76.71
2018-10-18T06:05:20.908Z,76.09
2018-10-18T06:06:24.961Z,76.58
2018-10-18T06:07:29.655Z,76.74
2018-10-18T06:08:33.657Z,76.18
2018-10-18T06:09:37.673Z,76.21
2018-10-18T06:10:53.209Z,76.56
2018-10-18T06:11:57.184Z,76.53
2018-10-18T06:13:01.276Z,75.83
2018-10-18T06:14:05.494Z,76.46
2018-10-18T06:15:09.662Z,76.39
2018-10-18T06:16:13.678Z,76.45
2018-10-18T06:17:17.687Z,76.51
2018-10-18T06:18:21.737Z,75.98
2018-10-18T06:19:25.915Z,76.45
2018-10-18T06:20:29.912Z,76.24
2018-10-18T06:21:34.162Z,76.58
2018-10-18T06:22:38.406Z,76.72
2018-10-18T06:23:42.452Z,76.27
2018-10-18T06:24:46.624Z,76.14
2018-10-18T06:25:50.678Z,76.07
2018-10-18T06:26:54.740Z,75.88
2018-10-18T06:27:59.173Z,76.51
2018-10-18T06:29:03.429Z,75.97
2018-10-18T06:30:09.587Z,76.53
2018-10-18T06:31:13.655Z,76.41
2018-10-18T06:32:17.773Z,75.75
2018-10-18T06:33:21.752Z,75.67
2018-10-18T06:34:25.825Z,76.11
2018-10-18T06:35:30.019Z,75.54
2018-10-18T06:36:34.142Z,76.04
2018-10-18T06:37:38.409Z,75.59
2018-10-18T06:38:42.410Z,75.59
2018-10-18T06:39:46.437Z,75.69
2018-10-18T06:40:50.505Z,76.15
2018-10-18T06:41:54.559Z,76.00
2018-10-18T06:42:58.545Z,75.69
2018-10-18T06:44:02.617Z,76.14
2018-10-18T06:45:07.936Z,75.78
2018-10-18T06:46:13.272Z,76.34
2018-10-18T06:47:17.284Z,76.09
2018-10-18T06:48:21.272Z,76.26
2018-10-18T06:49:25.386Z,75.98
2018-10-18T06:50:29.385Z,75.74
2018-10-18T06:51:33.459Z,76.20
2018-10-18T06:52:37.599Z,76.21
2018-10-18T06:53:42.216Z,75.53
2018-10-18T06:54:46.259Z,75.88
2018-10-18T06:55:50.420Z,75.61
2018-10-18T06:56:54.505Z,75.71
2018-10-18T06:57:58.448Z,75.63
2018-10-18T06:59:02.499Z,75.81
2018-10-18T07:00:12.697Z,76.11
2018-10-18T07:01:16.735Z,76.25
2018-10-18T07:02:20.849Z,75.76
2018-10-18T07:03:24.855Z,76.10
2018-10-18T07:04:28.986Z,75.82
2018-10-18T07:05:33.004Z,75.50
2018-10-18T07:06:36.982Z,75.56
2018-10-18T07:07:42.141Z,75.24
2018-10-18T07:08:46.232Z,75.86
2018-10-18T07:09:50.219Z,75.55
2018-10-18T07:10:54.251Z,75.17
2018-10-18T07:11:58.195Z,75.25
2018-10-18T07:13:02.260Z,75.58
2018-10-18T07:14:06.313Z,74.94
2018-10-18T07:15:11.168Z,75.22
2018-10-18T07:16:15.251Z,74.93
2018-10-18T07:17:19.579Z,75.08
2018-10-18T07:18:23.579Z,75.41
2018-10-18T07:19:27.741Z,74.62
2018-10-18T07:20:31.730Z,74.69
2018-10-18T07:21:36.049Z,74.74
2018-10-18T07:22:40.476Z,74.94
2018-10-18T07:23:44.572Z,75.06
2018-10-18T07:24:48.632Z,74.52
2018-10-18T07:25:59.366Z,74.75
2018-10-18T07:27:03.416Z,74.61
2018-10-18T07:28:07.380Z,75.09
2018-10-18T07:29:11.527Z,75.17
2018-10-18T07:30:15.979Z,74.37
2018-10-18T07:31:19.910Z,74.34
2018-10-18T07:32:24.119Z,74.40
2018-10-18T07:33:28.235Z,74.17
2018-10-18T07:34:32.422Z,74.24
2018-10-18T07:35:36.392Z,74.85
2018-10-18T07:36:40.456Z,74.14
2018-10-18T07:37:44.504Z,74.70
2018-10-18T07:38:48.614Z,74.34
2018-10-18T07:39:52.675Z,74.00
2018-10-18T07:40:56.760Z,74.48
2018-10-18T07:42:00.813Z,74.67
2018-10-18T07:43:04.936Z,73.91
2018-10-18T07:44:09.347Z,74.30
2018-10-18T07:45:14.346Z,74.44
2018-10-18T07:46:18.538Z,74.33
2018-10-18T07:47:22.616Z,74.15
2018-10-18T07:48:26.642Z,74.10
2018-10-18T07:49:30.757Z,74.18
2018-10-18T07:50:35.003Z,74.06
2018-10-18T07:51:39.079Z,73.35
2018-10-18T07:52:43.251Z,73.23
2018-10-18T07:53:47.308Z,73.26
2018-10-18T07:54:51.433Z,73.81
2018-10-18T07:55:55.715Z,73.13
2018-10-18T07:56:59.701Z,72.95
2018-10-18T07:58:03.756Z,73.62
2018-10-18T07:59:07.787Z,73.39
2018-10-18T08:00:13.589Z,72.94
2018-10-18T08:01:17.361Z,73.05
2018-10-18T08:02:21.365Z,72.68
2018-10-18T08:03:27.760Z,72.60
2018-10-18T08:04:31.853Z,72.90
2018-10-18T08:05:35.949Z,72.75
2018-10-18T08:06:40.014Z,72.79
2018-10-18T08:07:44.025Z,72.78
2018-10-18T08:08:48.098Z,72.55
2018-10-18T08:09:52.184Z,72.84
2018-10-18T08:10:56.282Z,72.96
2018-10-18T08:12:00.272Z,72.36
2018-10-18T08:13:04.783Z,72.74
2018-10-18T08:14:08.881Z,72.30
2018-10-18T08:15:14.127Z,72.31
2018-10-18T08:16:18.215Z,72.10
2018-10-18T08:17:22.463Z,71.84
2018-10-18T08:18:26.401Z,72.42
2018-10-18T08:19:30.471Z,71.80
2018-10-18T08:20:34.510Z,71.77
2018-10-18T08:21:38.697Z,72.23
2018-10-18T08:22:43.313Z,72.31
2018-10-18T08:23:47.280Z,71.79
2018-10-18T08:24:51.314Z,72.00
2018-10-18T08:25:55.324Z,71.80
2018-10-18T08:26:59.389Z,72.16
2018-10-18T08:28:03.469Z,72.07
2018-10-18T08:29:07.510Z,71.54
2018-10-18T08:30:12.937Z,71.76
2018-10-18T08:31:17.129Z,71.72
2018-10-18T08:32:21.062Z,71.44
2018-10-18T08:33:25.557Z,71.26
2018-10-18T08:34:29.750Z,72.04
2018-10-18T08:35:33.724Z,71.37
2018-10-18T08:36:37.829Z,71.31
2018-10-18T08:37:42.052Z,71.16
2018-10-18T08:38:45.941Z,71.75
2018-10-18T08:39:50.089Z,71.43
2018-10-18T08:40:56.985Z,71.22
2018-10-18T08:42:01.117Z,71.73
2018-10-18T08:43:05.238Z,71.46
2018-10-18T08:44:09.270Z,71.13
2018-10-18T08:45:13.241Z,71.85
2018-10-18T08:46:17.375Z,71.47
2018-10-18T08:47:21.581Z,71.15
2018-10-18T08:48:25.626Z,71.19
2018-10-18T08:49:29.859Z,71.23
2018-10-18T08:50:33.903Z,71.54
2018-10-18T08:51:37.995Z,71.37
2018-10-18T08:52:41.982Z,71.43
2018-10-18T08:53:45.968Z,71.38
2018-10-18T08:54:49.973Z,71.28
2018-10-18T08:55:53.996Z,70.72
2018-10-18T08:56:57.992Z,70.58
2018-10-18T08:58:02.096Z,71.15
2018-10-18T08:59:06.443Z,70.26
2018-10-18T09:00:11.599Z,70.25
2018-10-18T09:01:15.655Z,70.99
2018-10-18T09:02:19.569Z,70.85
2018-10-18T09:03:23.556Z,70.37
2018-10-18T09:04:27.602Z,70.67
2018-10-18T09:05:31.605Z,70.56
2018-10-18T09:06:35.656Z,70.71
2018-10-18T09:07:39.816Z,70.95
2018-10-18T09:08:43.947Z,70.73
2018-10-18T09:09:48.032Z,70.12
2018-10-18T09:10:52.048Z,70.61
2018-10-18T09:11:56.099Z,70.30
2018-10-18T09:13:00.224Z,70.77
2018-10-18T09:14:05.132Z,70.06
2018-10-18T09:15:09.656Z,70.29
2018-10-18T09:16:13.796Z,69.85
2018-10-18T09:17:17.787Z,70.38
2018-10-18T09:18:22.105Z,69.61
2018-10-18T09:19:26.125Z,69.37
2018-10-18T09:20:30.275Z,69.43
2018-10-18T09:21:34.526Z,69.76
2018-10-18T09:22:38.628Z,69.31
2018-10-18T09:23:42.880Z,69.40
2018-10-18T09:24:46.914Z,69.31
2018-10-18T09:25:50.976Z,68.81
2018-10-18T09:26:55.031Z,69.24
2018-10-18T09:27:59.033Z,68.53
2018-10-18T09:29:03.037Z,68.79
2018-10-18T09:30:08.555Z,68.51
2018-10-18T09:31:12.608Z,68.65
2018-10-18T09:32:16.614Z,68.67
2018-10-18T09:33:20.615Z,68.15
2018-10-18T09:34:24.671Z,67.98
2018-10-18T09:35:28.741Z,67.95
2018-10-18T09:36:32.717Z,67.80
2018-10-18T09:37:36.779Z,67.83
2018-10-18T09:38:41.244Z,67.47
2018-10-18T09:39:44.837Z,67.43
2018-10-18T09:40:48.977Z,67.99
2018-10-18T09:41:53.020Z,68.17
2018-10-18T09:42:57.179Z,67.85
2018-10-18T09:44:04.342Z,67.50
2018-10-18T09:45:10.262Z,67.67
2018-10-18T09:46:14.257Z,67.28
2018-10-18T09:47:18.338Z,67.76
2018-10-18T09:48:22.419Z,67.82
2018-10-18T09:49:26.440Z,67.32
2018-10-18T09:50:30.620Z,67.78
2018-10-18T09:51:35.447Z,67.66
2018-10-18T09:52:39.805Z,67.56
2018-10-18T09:53:44.913Z,67.34
2018-10-18T09:54:48.964Z,68.06
2018-10-18T09:55:53.017Z,67.71
2018-10-18T09:56:57.206Z,68.18
2018-10-18T09:58:01.227Z,67.62
2018-10-18T09:59:05.627Z,67.75
2018-10-18T10:00:15.105Z,68.29
2018-10-18T10:01:24.620Z,68.21
2018-10-18T10:02:34.051Z,67.56
2018-10-18T10:03:38.108Z,67.47
2018-10-18T10:04:42.130Z,68.21
2018-10-18T10:05:46.239Z,68.04
2018-10-18T10:06:50.210Z,67.67
2018-10-18T10:07:54.323Z,67.44
2018-10-18T10:08:58.384Z,67.60
2018-10-18T10:10:02.368Z,67.47
2018-10-18T10:11:06.634Z,67.68
2018-10-18T10:12:10.653Z,67.09
2018-10-18T10:13:14.753Z,67.22
2018-10-18T10:14:18.674Z,67.51
2018-10-18T10:15:22.765Z,67.10
2018-10-18T10:16:26.795Z,67.38
2018-10-18T10:17:30.889Z,67.07
2018-10-18T10:18:34.880Z,67.41
2018-10-18T10:19:38.893Z,66.79
2018-10-18T10:20:42.940Z,67.12
2018-10-18T10:21:47.174Z,66.84
2018-10-18T10:22:51.331Z,66.52
2018-10-18T10:23:55.376Z,67.00
2018-10-18T10:24:59.428Z,66.92
2018-10-18T10:26:03.793Z,66.54
2018-10-18T10:27:08.014Z,66.06
2018-10-18T10:28:12.071Z,65.90
2018-10-18T10:29:16.081Z,65.81
2018-10-18T10:30:20.146Z,65.87
2018-10-18T10:31:24.208Z,66.30
2018-10-18T10:32:28.298Z,65.45
2018-10-18T10:33:32.322Z,65.29
2018-10-18T10:34:36.323Z,66.03
2018-10-18T10:35:40.393Z,65.83
2018-10-18T10:36:44.350Z,65.02
2018-10-18T10:37:48.440Z,65.42
2018-10-18T10:38:52.496Z,64.99
2018-10-18T10:39:56.617Z,65.34
2018-10-18T10:41:00.753Z,65.11
2018-10-18T10:42:05.452Z,64.78
2018-10-18T10:43:09.483Z,64.69
2018-10-18T10:44:13.723Z,64.49
2018-10-18T10:45:17.630Z,64.54
2018-10-18T10:46:21.815Z,63.63
2018-10-18T10:47:25.689Z,64.11
2018-10-18T10:48:29.768Z,63.92
2018-10-18T10:49:33.781Z,63.82
2018-10-18T10:50:37.877Z,63.27
2018-10-18T10:51:42.080Z,62.91
2018-10-18T10:52:46.237Z,62.86
2018-10-18T10:53:50.311Z,63.08
2018-10-18T10:54:54.359Z,62.77
2018-10-18T10:55:58.349Z,61.81
2018-10-18T10:57:02.352Z,62.41
2018-10-18T10:58:06.702Z,62.40
2018-10-18T10:59:14.734Z,61.65
2018-10-18T11:01:23.425Z,61.35
2018-10-18T11:02:27.476Z,62.12
2018-10-18T11:03:31.528Z,61.85
2018-10-18T11:04:35.521Z,61.08
2018-10-18T11:05:39.675Z,61.41
2018-10-18T11:06:43.652Z,61.04
2018-10-18T11:07:47.879Z,60.63
2018-10-18T11:08:51.870Z,60.29
2018-10-18T11:09:55.942Z,60.45
2018-10-18T11:10:59.977Z,60.16
2018-10-18T11:12:04.148Z,59.13
2018-10-18T11:13:08.158Z,59.58
2018-10-18T11:14:12.219Z,58.67
2018-10-18T11:15:16.384Z,58.78
2018-10-18T11:16:20.240Z,58.10
2018-10-18T11:17:24.305Z,58.79
2018-10-18T11:18:28.482Z,58.85
2018-10-18T11:19:32.533Z,58.49
2018-10-18T11:20:36.520Z,58.01
2018-10-18T11:21:40.539Z,58.22
2018-10-18T11:22:44.627Z,57.80
2018-10-18T11:23:48.703Z,57.75
2018-10-18T11:24:52.765Z,57.84
2018-10-18T11:25:56.842Z,58.08
2018-10-18T11:27:00.878Z,58.00
2018-10-18T11:28:04.928Z,58.05
2018-10-18T11:29:08.871Z,57.86
2018-10-18T11:30:13.014Z,57.60
2018-10-18T11:31:16.987Z,57.89
2018-10-18T11:32:20.975Z,57.62
2018-10-18T11:33:24.956Z,58.31
2018-10-18T11:34:29.005Z,58.21
2018-10-18T11:35:33.147Z,58.22
2018-10-18T11:36:37.125Z,57.36
2018-10-18T11:37:41.271Z,58.22
2018-10-18T11:38:45.248Z,58.08
2018-10-18T11:39:49.275Z,57.65
2018-10-18T11:40:53.371Z,57.78
2018-10-18T11:41:57.566Z,57.92
2018-10-18T11:43:01.478Z,57.98
2018-10-18T11:44:05.760Z,58.14
2018-10-18T11:45:09.852Z,58.60
2018-10-18T11:46:13.963Z,58.65
2018-10-18T11:47:18.036Z,58.31
2018-10-18T11:48:22.093Z,57.92
2018-10-18T11:49:26.150Z,58.30
2018-10-18T11:50:30.212Z,57.64
2018-10-18T11:51:34.331Z,58.13
2018-10-18T11:52:38.546Z,57.53
2018-10-18T11:53:42.698Z,57.61
2018-10-18T11:54:46.724Z,56.86
2018-10-18T11:55:50.848Z,56.68
2018-10-18T11:56:54.988Z,56.75
2018-10-18T11:57:59.137Z,56.79
2018-10-18T11:59:03.562Z,56.16
2018-10-18T12:00:07.529Z,56.34
2018-10-18T12:01:11.655Z,55.82
2018-10-18T12:02:15.799Z,56.01
2018-10-18T12:03:19.844Z,56.08
2018-10-18T12:04:23.986Z,56.11
2018-10-18T12:05:28.089Z,56.02
2018-10-18T12:06:32.098Z,55.71
2018-10-18T12:07:36.179Z,55.95
2018-10-18T12:08:40.268Z,55.74
2018-10-18T12:09:44.334Z,55.86
2018-10-18T12:10:48.491Z,55.16
2018-10-18T12:11:52.621Z,55.64
2018-10-18T12:12:56.643Z,54.88
2018-10-18T12:14:01.200Z,55.04
2018-10-18T12:15:05.689Z,55.43
2018-10-18T12:16:09.817Z,54.79
2018-10-18T12:17:13.947Z,55.41
2018-10-18T12:18:17.941Z,55.07
2018-10-18T12:19:22.012Z,54.51
2018-10-18T12:20:26.081Z,55.16
2018-10-18T12:21:30.482Z,54.67
2018-10-18T12:22:34.520Z,54.84
2018-10-18T12:23:38.519Z,55.16
2018-10-18T12:24:43.036Z,55.09
2018-10-18T12:25:47.154Z,54.79
2018-10-18T12:26:51.281Z,54.33
2018-10-18T12:27:55.265Z,54.28
2018-10-18T12:28:59.452Z,54.64
2018-10-18T12:30:03.933Z,54.39
2018-10-18T12:31:08.002Z,54.72
2018-10-18T12:32:12.124Z,54.53
2018-10-18T12:33:16.572Z,54.51
2018-10-18T12:34:20.700Z,54.52
2018-10-18T12:35:24.768Z,54.60
2018-10-18T12:36:28.820Z,54.65
2018-10-18T12:37:32.881Z,54.93
2018-10-18T12:38:36.994Z,54.95
2018-10-18T12:39:41.210Z,54.21
2018-10-18T12:40:45.251Z,54.77
2018-10-18T12:41:49.277Z,55.04
2018-10-18T12:42:53.313Z,54.79
2018-10-18T12:43:57.524Z,54.83
2018-10-18T12:45:01.583Z,54.26
2018-10-18T12:46:05.968Z,54.50
2018-10-18T12:47:11.167Z,54.78
2018-10-18T12:48:15.377Z,55.11
2018-10-18T12:49:19.330Z,54.89
2018-10-18T12:50:23.433Z,55.14
2018-10-18T12:51:27.447Z,54.95
2018-10-18T12:52:31.476Z,54.45
2018-10-18T12:53:35.579Z,54.68
2018-10-18T12:54:39.906Z,54.96
2018-10-18T12:55:43.974Z,54.60
2018-10-18T12:56:47.976Z,54.94
2018-10-18T12:57:52.100Z,54.84
2018-10-18T12:58:56.113Z,54.74
2018-10-18T13:00:00.627Z,54.61
2018-10-18T13:01:05.038Z,54.52
2018-10-18T13:02:09.147Z,54.43
2018-10-18T13:03:13.125Z,54.54
2018-10-18T13:04:17.161Z,53.74
2018-10-18T13:05:21.255Z,53.97
2018-10-18T13:06:25.497Z,53.80
2018-10-18T13:07:29.551Z,53.85
2018-10-18T13:08:33.933Z,53.62
2018-10-18T13:09:37.947Z,53.97
2018-10-18T13:10:41.986Z,53.88
2018-10-18T13:11:46.089Z,53.37
2018-10-18T13:12:50.164Z,53.50
2018-10-18T13:13:54.235Z,54.13
2018-10-18T13:14:58.344Z,53.96
2018-10-18T13:16:02.442Z,54.17
2018-10-18T13:17:06.775Z,54.42
2018-10-18T13:18:10.915Z,53.94
2018-10-18T13:19:14.940Z,53.76
2018-10-18T13:20:19.363Z,54.01
2018-10-18T13:21:23.471Z,54.26
2018-10-18T13:22:27.503Z,54.29
2018-10-18T13:23:31.567Z,53.89
2018-10-18T13:24:35.643Z,53.89
2018-10-18T13:25:39.955Z,53.91
2018-10-18T13:26:44.051Z,53.55
2018-10-18T13:27:48.083Z,54.11
2018-10-18T13:28:52.076Z,53.68
2018-10-18T13:29:56.188Z,54.27
2018-10-18T13:31:00.161Z,54.56
2018-10-18T13:32:04.368Z,54.13
2018-10-18T13:33:08.397Z,54.25
2018-10-18T13:34:12.612Z,54.00
2018-10-18T13:35:16.567Z,54.08
2018-10-18T13:36:20.630Z,54.58
2018-10-18T13:37:24.691Z,54.62
2018-10-18T13:38:28.764Z,54.46
2018-10-18T13:39:32.817Z,54.56
2018-10-18T13:40:36.944Z,54.93
2018-10-18T13:41:40.912Z,54.49
2018-10-18T13:42:44.996Z,55.52
2018-10-18T13:43:49.126Z,56.02
2018-10-18T13:44:53.215Z,56.09
2018-10-18T13:45:57.205Z,56.76
2018-10-18T13:47:01.275Z,57.10
2018-10-18T13:48:05.730Z,57.58
2018-10-18T13:49:09.853Z,57.29